createdAt,value
2022-10-19T00:01:42.223Z,25.77
2022-10-19T00:04:44.720Z,25.40
2022-10-19T00:07:46.882Z,25.60
2022-10-19T00:10:49.082Z,25.35
2022-10-19T00:13:51.897Z,26.50
2022-10-19T00:16:55.612Z,25.23
2022-10-19T00:19:57.787Z,25.83
2022-10-19T00:22:59.931Z,26.95
2022-10-19T00:26:02.294Z,26.25
2022-10-19T00:29:04.954Z,27.15
2022-10-19T00:32:07.125Z,26.00
2022-10-19T00:35:09.510Z,25.40
2022-10-19T00:38:11.682Z,25.10
2022-10-19T00:41:15.270Z,24.63
2022-10-19T00:44:17.458Z,26.20
2022-10-19T00:47:23.428Z,24.07
2022-10-19T00:50:25.590Z,24.50
2022-10-19T00:53:29.171Z,24.55
2022-10-19T00:56:32.225Z,25.00
2022-10-19T00:59:34.847Z,25.85
2022-10-19T01:02:37.418Z,25.80
2022-10-19T01:05:39.922Z,26.13
2022-10-19T01:08:42.028Z,26.77
2022-10-19T01:11:59.595Z,25.77
2022-10-19T01:15:27.912Z,25.88
2022-10-19T01:18:45.106Z,25.73
2022-10-19T01:22:02.167Z,24.63
2022-10-19T01:25:29.010Z,24.75
2022-10-19T01:28:54.128Z,24.15
2022-10-19T01:32:33.413Z,23.38
2022-10-19T01:36:05.137Z,23.43
2022-10-19T01:39:21.072Z,22.97
2022-10-19T01:42:30.445Z,23.20
2022-10-19T01:45:52.610Z,23.77
2022-10-19T01:48:58.753Z,23.23
2022-10-19T01:52:05.076Z,22.70
2022-10-19T01:55:08.649Z,23.57
2022-10-19T01:58:15.576Z,24.13
2022-10-19T02:01:20.069Z,23.95
2022-10-19T02:04:25.276Z,24.65
2022-10-19T02:07:27.798Z,24.60
2022-10-19T02:10:31.724Z,24.27
2022-10-19T02:13:34.209Z,24.83
2022-10-19T02:16:41.294Z,24.33
2022-10-19T02:19:43.934Z,23.38
2022-10-19T02:22:46.122Z,24.03
2022-10-19T02:25:48.428Z,25.30
2022-10-19T02:28:51.742Z,26.75
2022-10-19T02:31:54.110Z,25.20
2022-10-19T02:34:56.303Z,23.42
2022-10-19T02:38:00.475Z,23.90
2022-10-19T02:41:23.842Z,24.17
2022-10-19T02:44:48.188Z,24.15
2022-10-19T02:47:58.595Z,24.50
2022-10-19T02:51:01.051Z,25.13
2022-10-19T02:54:05.553Z,26.10
2022-10-19T02:57:20.172Z,25.57
2022-10-19T03:00:22.291Z,25.73
2022-10-19T03:03:24.417Z,26.00
2022-10-19T03:06:26.549Z,25.25
2022-10-19T03:09:28.683Z,24.20
2022-10-19T03:12:30.771Z,24.23
2022-10-19T03:15:33.647Z,24.27
2022-10-19T03:18:36.640Z,24.33
2022-10-19T03:21:39.523Z,24.00
2022-10-19T03:24:42.618Z,21.67
2022-10-19T03:27:45.505Z,21.83
2022-10-19T03:30:48.040Z,22.20
2022-10-19T03:33:50.531Z,23.58
2022-10-19T03:36:52.818Z,22.55
2022-10-19T03:39:54.977Z,22.60
2022-10-19T03:42:57.201Z,21.23
2022-10-19T03:45:59.351Z,22.17
2022-10-19T03:49:02.162Z,23.00
2022-10-19T03:52:07.472Z,21.10
2022-10-19T03:55:10.605Z,22.17
2022-10-19T03:58:12.844Z,23.47
2022-10-19T04:01:24.233Z,22.98
2022-10-19T04:04:26.359Z,24.00
2022-10-19T04:07:28.474Z,28.92
2022-10-19T04:10:31.433Z,25.07
2022-10-19T04:13:34.009Z,22.40
2022-10-19T04:16:36.231Z,22.27
2022-10-19T04:19:38.380Z,23.25
2022-10-19T04:22:40.492Z,23.02
2022-10-19T04:25:42.633Z,21.97
2022-10-19T04:28:44.791Z,21.77
2022-10-19T04:31:49.567Z,22.80
2022-10-19T04:34:51.699Z,22.60
2022-10-19T04:37:53.850Z,22.58
2022-10-19T04:40:56.420Z,22.10
2022-10-19T04:44:00.033Z,21.30
2022-10-19T04:47:02.267Z,21.63
2022-10-19T04:50:04.683Z,20.50
2022-10-19T04:53:07.508Z,22.55
2022-10-19T04:56:19.514Z,23.73
2022-10-19T04:59:21.883Z,23.40
2022-10-19T05:02:24.093Z,24.02
2022-10-19T05:05:26.780Z,23.00
2022-10-19T05:08:28.953Z,23.00
2022-10-19T05:11:31.134Z,24.03
2022-10-19T05:14:35.794Z,24.50
2022-10-19T05:17:40.057Z,24.52
2022-10-19T05:20:42.209Z,22.90
2022-10-19T05:23:44.907Z,23.05
2022-10-19T05:26:47.105Z,21.83
2022-10-19T05:29:50.246Z,21.63
2022-10-19T05:32:53.956Z,20.15
2022-10-19T05:35:56.941Z,19.95
2022-10-19T05:39:04.237Z,19.73
2022-10-19T05:42:07.522Z,22.43
2022-10-19T05:45:10.538Z,22.07
2022-10-19T05:48:12.689Z,22.55
2022-10-19T05:51:18.204Z,24.27
2022-10-19T05:54:22.712Z,26.77
2022-10-19T05:57:27.186Z,28.70
2022-10-19T06:00:29.341Z,31.70
2022-10-19T06:03:31.726Z,34.10
2022-10-19T06:06:34.024Z,31.02
2022-10-19T06:09:36.493Z,24.00
2022-10-19T06:12:38.688Z,20.57
2022-10-19T06:15:40.976Z,19.07
2022-10-19T06:18:43.798Z,17.55
2022-10-19T06:21:46.188Z,14.90
2022-10-19T06:24:48.376Z,13.27
2022-10-19T06:27:50.610Z,10.93
2022-10-19T06:30:52.870Z,10.87
2022-10-19T06:33:55.988Z,9.50
2022-10-19T06:36:58.302Z,8.77
2022-10-19T06:40:04.743Z,7.85
2022-10-19T06:43:08.980Z,8.30
2022-10-19T06:46:20.364Z,8.13
2022-10-19T06:49:22.519Z,8.20
2022-10-19T06:52:24.707Z,8.65
2022-10-19T06:55:26.946Z,8.73
2022-10-19T06:58:30.938Z,9.23
2022-10-19T07:01:33.216Z,8.80
2022-10-19T07:04:35.338Z,7.85
2022-10-19T07:07:37.957Z,7.15
2022-10-19T07:10:40.347Z,6.10
2022-10-19T07:13:42.531Z,5.70
2022-10-19T07:16:44.683Z,4.93
2022-10-19T07:19:46.814Z,4.60
2022-10-19T07:22:49.020Z,4.53
2022-10-19T07:25:52.838Z,4.05
2022-10-19T07:28:56.894Z,3.77
2022-10-19T07:31:58.988Z,3.00
2022-10-19T07:35:01.165Z,3.45
2022-10-19T07:38:07.587Z,3.40
2022-10-19T07:41:12.873Z,2.92
2022-10-19T07:44:15.898Z,3.03
2022-10-19T07:47:18.239Z,3.00
2022-10-19T07:50:20.504Z,2.70
2022-10-19T07:53:23.189Z,2.90
2022-10-19T07:56:28.062Z,3.15
2022-10-19T07:59:34.261Z,3.00
2022-10-19T08:02:54.696Z,3.20
2022-10-19T08:06:06.786Z,2.80
2022-10-19T08:09:09.067Z,3.10
2022-10-19T08:12:15.178Z,3.22
2022-10-19T08:15:17.845Z,2.83
2022-10-19T08:18:22.471Z,2.87
2022-10-19T08:21:47.191Z,3.25
2022-10-19T08:25:01.698Z,3.00
2022-10-19T08:28:04.140Z,3.60
2022-10-19T08:31:14.820Z,3.00
2022-10-19T08:34:17.393Z,2.90
2022-10-19T08:37:32.591Z,2.88
2022-10-19T08:40:44.680Z,2.80
2022-10-19T08:44:20.907Z,3.00
2022-10-19T08:47:45.335Z,2.80
2022-10-19T08:50:47.877Z,2.90
2022-10-19T08:53:53.699Z,3.10
2022-10-19T08:57:34.682Z,2.80
2022-10-19T09:01:09.017Z,3.20
2022-10-19T09:04:35.155Z,3.50
2022-10-19T09:07:45.091Z,3.17
2022-10-19T09:10:50.367Z,3.28
2022-10-19T09:14:05.210Z,3.50
2022-10-19T09:17:16.567Z,2.97
2022-10-19T09:20:22.020Z,2.80
2022-10-19T09:23:47.371Z,3.20
2022-10-19T09:26:53.599Z,3.35
2022-10-19T09:29:58.254Z,3.58
2022-10-19T09:33:02.196Z,3.60
2022-10-19T09:36:07.526Z,3.30
2022-10-19T09:39:12.791Z,3.70
2022-10-19T09:42:29.515Z,3.20
2022-10-19T09:45:33.253Z,3.00
2022-10-19T09:48:42.552Z,3.08
2022-10-19T09:51:50.389Z,2.90
2022-10-19T09:55:01.461Z,3.00
2022-10-19T09:58:04.885Z,2.90
2022-10-19T10:01:07.094Z,3.60
2022-10-19T10:04:15.582Z,2.80
2022-10-19T10:07:18.646Z,2.60
2022-10-19T10:10:28.078Z,2.70
2022-10-19T10:13:36.733Z,2.60
2022-10-19T10:16:38.964Z,2.70
2022-10-19T10:20:10.873Z,2.17
2022-10-19T10:23:23.229Z,1.50
2022-10-19T10:26:25.891Z,1.67
2022-10-19T10:29:30.574Z,1.70
2022-10-19T10:32:37.534Z,1.70
2022-10-19T10:35:39.815Z,1.70
2022-10-19T10:38:47.582Z,1.80
2022-10-19T10:41:49.781Z,1.93
2022-10-19T10:44:53.223Z,1.60
2022-10-19T10:47:55.418Z,1.65
2022-10-19T10:50:58.266Z,1.60
2022-10-19T10:54:09.225Z,1.60
2022-10-19T10:57:13.321Z,1.70
2022-10-19T11:00:20.841Z,1.50
2022-10-19T11:03:26.343Z,0.85
2022-10-19T11:06:28.475Z,1.27
2022-10-19T11:09:43.814Z,1.10
2022-10-19T11:12:49.900Z,1.00
2022-10-19T11:15:56.128Z,1.00
2022-10-19T11:19:08.602Z,0.90
2022-10-19T11:22:22.484Z,1.10
2022-10-19T11:25:45.256Z,1.00
2022-10-19T11:29:02.659Z,1.27
2022-10-19T11:32:13.085Z,1.48
2022-10-19T11:35:39.885Z,1.38
2022-10-19T11:38:53.962Z,1.42
2022-10-19T11:42:18.054Z,1.20
2022-10-19T11:45:32.347Z,1.60
2022-10-19T11:48:44.517Z,1.25
2022-10-19T11:52:09.861Z,1.30
2022-10-19T11:55:30.547Z,1.42
2022-10-19T11:58:34.984Z,1.47
2022-10-19T12:01:43.330Z,1.53
2022-10-19T12:04:54.865Z,1.60
2022-10-19T12:08:16.341Z,1.52
2022-10-19T12:11:46.670Z,1.50
2022-10-19T12:14:52.315Z,1.50
2022-10-19T12:17:57.504Z,1.20
2022-10-19T12:21:02.632Z,1.33
2022-10-19T12:24:10.803Z,1.17
2022-10-19T12:27:15.007Z,1.40
2022-10-19T12:30:23.637Z,1.00
2022-10-19T12:33:41.011Z,1.40
2022-10-19T12:37:20.349Z,1.10
2022-10-19T12:40:41.338Z,1.10
2022-10-19T12:44:01.839Z,1.17
2022-10-19T12:47:11.757Z,1.10
2022-10-19T12:50:14.025Z,1.07
2022-10-19T12:53:44.334Z,1.20
2022-10-19T12:56:48.949Z,1.30
2022-10-19T13:00:27.010Z,1.15
2022-10-19T13:03:37.283Z,1.30
2022-10-19T13:06:47.412Z,1.57
2022-10-19T13:09:49.842Z,1.40
2022-10-19T13:12:52.208Z,1.60
2022-10-19T13:15:54.397Z,1.45
2022-10-19T13:19:19.203Z,1.50
2022-10-19T13:22:26.720Z,1.53
2022-10-19T13:25:30.194Z,1.42
2022-10-19T13:28:32.313Z,1.40
2022-10-19T13:31:34.660Z,1.40
2022-10-19T13:34:36.816Z,1.60
2022-10-19T13:37:39.253Z,1.80
2022-10-19T13:40:47.320Z,1.70
2022-10-19T13:43:55.218Z,1.80
2022-10-19T13:47:02.769Z,1.60
2022-10-19T13:50:46.541Z,1.80
2022-10-19T13:54:12.535Z,1.90
2022-10-19T13:57:33.135Z,1.80
2022-10-19T14:00:53.743Z,1.80
2022-10-19T14:03:58.718Z,1.80
2022-10-19T14:07:17.774Z,2.23
2022-10-19T14:10:25.141Z,2.43
2022-10-19T14:13:35.164Z,2.67
2022-10-19T14:16:55.222Z,2.40
2022-10-19T14:20:04.106Z,2.30
2022-10-19T14:23:28.517Z,1.90
2022-10-19T14:26:31.231Z,1.90
2022-10-19T14:29:47.701Z,2.42
2022-10-19T14:32:50.027Z,2.20
2022-10-19T14:35:52.970Z,2.17
2022-10-19T14:38:56.719Z,2.77
2022-10-19T14:42:07.394Z,2.20
2022-10-19T14:45:19.290Z,2.50
2022-10-19T14:48:21.867Z,2.03
2022-10-19T14:51:35.782Z,2.20
2022-10-19T14:54:42.187Z,1.90
2022-10-19T14:57:49.114Z,2.27
2022-10-19T15:00:52.285Z,1.98
2022-10-19T15:03:54.822Z,1.90
2022-10-19T15:06:58.633Z,2.00
2022-10-19T15:10:03.867Z,2.20
2022-10-19T15:13:06.894Z,2.20
2022-10-19T15:16:33.467Z,2.05
2022-10-19T15:19:38.366Z,1.77
2022-10-19T15:22:40.740Z,2.08
2022-10-19T15:25:43.203Z,2.00
2022-10-19T15:28:45.681Z,2.20
2022-10-19T15:31:48.518Z,2.40
2022-10-19T15:34:59.853Z,2.10
2022-10-19T15:38:04.228Z,2.05
2022-10-19T15:41:06.578Z,2.17
2022-10-19T15:44:32.191Z,1.97
2022-10-19T15:47:34.543Z,2.10
2022-10-19T15:50:43.892Z,2.10
2022-10-19T15:53:46.019Z,2.15
2022-10-19T15:56:51.801Z,2.33
2022-10-19T15:59:55.830Z,2.07
2022-10-19T16:02:59.183Z,2.20
2022-10-19T16:06:03.099Z,2.20
2022-10-19T16:09:07.098Z,2.20
2022-10-19T16:12:11.740Z,2.40
2022-10-19T16:15:22.624Z,2.33
2022-10-19T16:18:25.036Z,2.40
2022-10-19T16:21:30.649Z,1.95
2022-10-19T16:24:32.843Z,2.20
2022-10-19T16:27:35.437Z,2.20
2022-10-19T16:30:43.865Z,2.40
2022-10-19T16:33:46.361Z,2.22
2022-10-19T16:36:48.664Z,2.40
2022-10-19T16:39:50.814Z,2.50
2022-10-19T16:42:52.981Z,1.90
2022-10-19T16:45:55.332Z,2.10
2022-10-19T16:48:57.818Z,2.15
2022-10-19T16:52:01.666Z,2.70
2022-10-19T16:55:04.074Z,2.70
2022-10-19T16:58:07.308Z,2.70
2022-10-19T17:01:16.142Z,2.40
2022-10-19T17:04:18.779Z,2.63
2022-10-19T17:07:23.579Z,2.38
2022-10-19T17:10:28.626Z,2.67
2022-10-19T17:13:31.793Z,2.90
2022-10-19T17:16:36.238Z,2.37
2022-10-19T17:19:39.282Z,2.53
2022-10-19T17:22:41.752Z,2.42
2022-10-19T17:25:48.635Z,2.83
2022-10-19T17:28:51.281Z,2.40
2022-10-19T17:31:54.713Z,2.27
2022-10-19T17:35:00.865Z,2.58
2022-10-19T17:38:03.788Z,2.60
2022-10-19T17:41:25.469Z,2.60
2022-10-19T17:44:29.241Z,2.80
2022-10-19T17:47:31.969Z,3.47
2022-10-19T17:50:34.838Z,2.50
2022-10-19T17:53:37.566Z,3.33
2022-10-19T17:56:40.643Z,3.22
2022-10-19T17:59:52.441Z,2.50
2022-10-19T18:02:55.586Z,2.97
2022-10-19T18:06:16.590Z,3.30
2022-10-19T18:09:18.810Z,3.92
2022-10-19T18:12:21.191Z,4.30
2022-10-19T18:15:27.307Z,3.43
2022-10-19T18:18:33.069Z,2.93
2022-10-19T18:21:39.600Z,4.50
2022-10-19T18:24:42.356Z,4.13
2022-10-19T18:27:45.598Z,3.60
2022-10-19T18:30:51.109Z,7.33
2022-10-19T18:34:05.193Z,3.80
2022-10-19T18:37:07.964Z,4.60
2022-10-19T18:40:12.392Z,5.88
2022-10-19T18:43:15.172Z,4.68
2022-10-19T18:46:19.454Z,9.33
2022-10-19T18:49:22.523Z,4.43
2022-10-19T18:52:24.961Z,4.45
2022-10-19T18:55:27.590Z,3.83
2022-10-19T18:58:31.507Z,3.38
2022-10-19T19:01:34.266Z,2.70
2022-10-19T19:04:37.756Z,2.47
2022-10-19T19:07:40.506Z,2.13
2022-10-19T19:10:47.738Z,3.00
2022-10-19T19:14:14.695Z,2.45
2022-10-19T19:17:17.462Z,2.67
2022-10-19T19:20:20.289Z,2.67
2022-10-19T19:23:22.965Z,4.55
2022-10-19T19:26:28.820Z,3.22
2022-10-19T19:29:31.519Z,3.58
2022-10-19T19:32:35.423Z,3.90
2022-10-19T19:35:45.681Z,5.10
2022-10-19T19:38:50.962Z,3.70
2022-10-19T19:41:54.500Z,3.80
2022-10-19T19:44:57.505Z,3.30
2022-10-19T19:48:00.219Z,2.70
2022-10-19T19:51:02.566Z,3.07
2022-10-19T19:54:05.990Z,3.20
2022-10-19T19:57:08.720Z,7.35
2022-10-19T20:00:12.208Z,4.15
2022-10-19T20:03:48.286Z,3.30
2022-10-19T20:06:50.990Z,8.10
2022-10-19T20:09:54.437Z,3.72
2022-10-19T20:13:10.554Z,4.30
2022-10-19T20:16:22.697Z,4.13
2022-10-19T20:19:27.946Z,4.40
2022-10-19T20:22:31.729Z,4.30
2022-10-19T20:25:38.000Z,5.10
2022-10-19T20:28:41.829Z,5.40
2022-10-19T20:31:45.513Z,5.30
2022-10-19T20:35:02.075Z,5.10
2022-10-19T20:38:04.491Z,4.30
2022-10-19T20:41:08.491Z,4.70
2022-10-19T20:44:11.142Z,5.10
2022-10-19T20:47:13.782Z,5.15
2022-10-19T20:50:19.236Z,4.53
2022-10-19T20:53:24.044Z,4.70
2022-10-19T20:56:28.637Z,6.30
2022-10-19T20:59:32.910Z,5.22
2022-10-19T21:02:35.367Z,4.38
2022-10-19T21:05:38.581Z,4.60
2022-10-19T21:08:40.839Z,4.47
2022-10-19T21:11:44.007Z,4.40
2022-10-19T21:14:46.136Z,4.43
2022-10-19T21:17:48.221Z,4.13
2022-10-19T21:20:50.531Z,4.03
2022-10-19T21:23:57.667Z,4.17
2022-10-19T21:27:05.606Z,4.10
2022-10-19T21:30:08.291Z,4.10
2022-10-19T21:33:10.466Z,4.00
2022-10-19T21:36:14.227Z,3.93
2022-10-19T21:39:16.929Z,4.07
2022-10-19T21:42:19.084Z,4.50
2022-10-19T21:45:36.532Z,4.10
2022-10-19T21:48:39.430Z,4.22
2022-10-19T21:51:50.192Z,3.93
2022-10-19T21:54:53.550Z,4.23
2022-10-19T21:57:56.468Z,4.80
2022-10-19T22:01:08.249Z,4.18
2022-10-19T22:04:15.699Z,4.13
2022-10-19T22:07:17.837Z,4.03
2022-10-19T22:10:19.968Z,5.67
2022-10-19T22:13:22.118Z,7.45
2022-10-19T22:16:25.628Z,9.23
2022-10-19T22:19:27.796Z,9.52
2022-10-19T22:22:29.972Z,8.53
2022-10-19T22:25:33.333Z,8.20
2022-10-19T22:28:35.477Z,9.15
2022-10-19T22:31:38.138Z,8.52
2022-10-19T22:34:40.328Z,7.45
2022-10-19T22:37:42.446Z,7.50
2022-10-19T22:41:01.360Z,7.50
2022-10-19T22:44:03.708Z,7.05
2022-10-19T22:47:05.914Z,6.40
2022-10-19T22:50:11.816Z,5.63
2022-10-19T22:53:14.325Z,4.80
2022-10-19T22:56:16.545Z,5.07
2022-10-19T22:59:18.770Z,4.60
2022-10-19T23:02:21.002Z,4.97
2022-10-19T23:05:23.251Z,4.68
2022-10-19T23:08:26.357Z,3.93
2022-10-19T23:11:28.760Z,3.87
2022-10-19T23:14:31.229Z,4.45
2022-10-19T23:17:33.683Z,4.55
2022-10-19T23:20:36.375Z,4.10
2022-10-19T23:23:39.398Z,4.50
2022-10-19T23:26:41.633Z,4.10
2022-10-19T23:29:43.867Z,4.20
2022-10-19T23:32:46.085Z,4.30
2022-10-19T23:35:48.249Z,4.20
2022-10-19T23:38:51.814Z,3.77
2022-10-19T23:41:53.950Z,4.40
2022-10-19T23:44:56.042Z,3.83
2022-10-19T23:47:58.224Z,4.22
2022-10-19T23:51:04.063Z,4.55
2022-10-19T23:54:06.177Z,3.73
2022-10-19T23:57:08.316Z,3.80
